Time;durP1;ratioP1;P1;durP2;ratioP2;P2;SDS_P1;SDS_P2;PMS_P1;PMS_P2;Temp;Humidity;BMP_temperature;BMP_pressure;BME280_temperature;BME280_humidity;BME280_pressure;Samples;Min_cycle;Max_cycle;Signal;HPM_P1;HPM_P2
2022/11/05 00:09:31;;;;;;;929.40;866.28;;;;;;;12.15;73.05;100549.00;694439;28;136403;-65
2022/11/05 00:09:55;;;;;;;915.97;853.22;;;;;;;12.15;72.72;100551.72;692849;28;114093;-65
2022/11/05 00:10:19;;;;;;;922.13;859.25;;;;;;;12.14;72.85;100550.03;692425;28;115077;-65
2022/11/05 00:10:41;;;;;;;936.58;873.28;;;;;;;12.15;72.94;100551.72;694195;28;67500;-65
2022/11/05 00:11:03;;;;;;;907.28;845.00;;;;;;;12.16;73.19;100549.84;693776;28;68323;-65
2022/11/05 00:16:59;;;;;;;929.05;865.95;;;;;;;12.20;72.72;100559.25;688227;28;158933;-65
2022/11/05 00:17:20;;;;;;;928.13;865.08;;;;;;;12.21;72.48;100553.66;687189;28;138909;-65
2022/11/05 00:17:41;;;;;;;927.80;864.80;;;;;;;12.21;72.53;100558.22;692408;28;21547;-65
2022/11/05 00:18:02;;;;;;;931.47;868.28;;;;;;;12.21;72.84;100560.91;693640;28;46359;-65
2022/11/05 00:18:25;;;;;;;925.08;862.13;;;;;;;12.20;72.36;100561.97;695731;28;22394;-65
2022/11/05 00:19:05;;;;;;;915.25;852.53;;;;;;;12.21;72.51;100563.63;694359;28;45958;-65
2022/11/05 00:19:26;;;;;;;919.15;856.45;;;;;;;12.19;72.41;100563.00;691740;28;137461;-65
2022/11/05 00:19:47;;;;;;;904.60;842.25;;;;;;;12.20;72.64;100559.25;695569;28;22478;-65
2022/11/05 00:20:12;;;;;;;903.95;841.75;;;;;;;12.20;72.60;100561.97;695724;28;23498;-65
2022/11/05 00:20:33;;;;;;;926.90;863.97;;;;;;;12.18;72.58;100555.91;692576;28;115355;-65
2022/11/05 00:20:55;;;;;;;927.13;863.95;;;;;;;12.18;73.00;100559.44;695509;28;23478;-65
2022/11/05 00:25:15;;;;;;;926.42;863.40;;;;;;;12.19;72.89;100561.09;694227;28;137452;-65
2022/11/05 00:25:36;;;;;;;926.75;863.58;;;;;;;12.19;72.62;100565.69;694456;28;138055;-65
2022/11/05 00:25:59;;;;;;;911.08;848.45;;;;;;;12.19;72.79;100565.69;697196;28;44375;-65
2022/11/05 00:26:21;;;;;;;917.13;854.38;;;;;;;12.19;72.57;100565.69;694079;28;69312;-65
2022/11/05 00:26:43;;;;;;;921.75;858.85;;;;;;;12.18;72.92;100570.28;694734;28;46336;-65
2022/11/05 00:27:04;;;;;;;927.30;863.83;;;;;;;12.18;72.75;100564.03;691661;28;22392;-65
2022/11/05 00:27:25;;;;;;;935.17;871.55;;;;;;;12.18;72.77;100564.88;692693;28;21555;-65
2022/11/05 00:27:51;;;;;;;931.22;868.03;;;;;;;12.17;72.93;100563.19;689475;28;45241;-65
2022/11/05 00:28:12;;;;;;;929.58;866.50;;;;;;;12.18;73.02;100562.16;687214;28;115150;-65
2022/11/05 00:28:34;;;;;;;909.08;846.67;;;;;;;12.18;73.01;100573.00;689606;28;21460;-65
2022/11/05 00:28:56;;;;;;;919.97;857.20;;;;;;;12.17;72.71;100563.19;693922;28;22376;-64
2022/11/05 00:29:17;;;;;;;935.08;871.80;;;;;;;12.14;73.16;100560.84;692722;28;70164;-64
2022/11/05 00:29:40;;;;;;;929.83;866.63;;;;;;;12.16;72.96;100564.22;691890;28;46392;-64
2022/11/05 00:30:03;;;;;;;928.42;865.35;;;;;;;12.17;73.20;100565.88;691722;28;46387;-65
2022/11/05 00:30:25;;;;;;;923.00;860.30;;;;;;;12.18;73.08;100564.03;691128;28;69671;-65
2022/11/05 00:30:47;;;;;;;921.05;858.25;;;;;;;12.18;72.78;100567.56;693489;28;22459;-65
2022/11/05 00:31:10;;;;;;;906.45;844.05;;;;;;;12.19;72.77;100565.69;699133;28;46258;-64
2022/11/05 00:31:31;;;;;;;907.03;844.67;;;;;;;12.20;72.98;100567.38;696229;28;69499;-65
2022/11/05 00:31:53;;;;;;;915.92;853.33;;;;;;;12.20;72.96;100564.69;697414;28;44372;-64
2022/11/05 00:32:14;;;;;;;916.65;853.97;;;;;;;12.19;73.15;100565.69;697278;28;46601;-65
2022/11/05 00:32:36;;;;;;;921.45;858.65;;;;;;;12.19;72.78;100563.81;695767;28;23405;-65
2022/11/05 00:33:01;;;;;;;924.75;861.80;;;;;;;12.21;72.97;100571.75;691516;28;44353;-64
2022/11/05 00:33:22;;;;;;;910.92;848.38;;;;;;;12.19;72.92;100563.00;690911;28;113497;-65
2022/11/05 00:33:47;;;;;;;920.08;857.30;;;;;;;12.19;72.68;100565.69;695207;28;23279;-64
2022/11/05 00:34:08;;;;;;;920.28;857.47;;;;;;;12.19;72.96;100565.69;693329;28;92285;-65
2022/11/05 00:34:29;;;;;;;922.42;859.58;;;;;;;12.19;72.95;100571.94;694566;28;44378;-64
2022/11/05 00:34:51;;;;;;;928.80;865.67;;;;;;;12.18;72.69;100567.56;695559;28;22381;-65
2022/11/05 00:35:15;;;;;;;931.90;868.58;;;;;;;12.18;72.77;100570.28;693564;28;69241;-65
2022/11/05 00:35:37;;;;;;;925.75;862.72;;;;;;;12.19;72.77;100571.94;694101;28;69468;-65
2022/11/05 00:35:58;;;;;;;926.05;862.97;;;;;;;12.19;72.88;100573.81;694833;28;44416;-65
2022/11/05 00:36:19;;;;;;;935.55;872.25;;;;;;;12.18;72.69;100575.69;695465;28;22288;-65
2022/11/05 00:36:41;;;;;;;950.85;887.00;;;;;;;12.18;72.76;100570.28;696192;28;23299;-64
2022/11/05 00:37:03;;;;;;;922.65;859.53;;;;;;;12.18;72.87;100572.16;697352;28;46556;-65
2022/11/05 00:37:26;;;;;;;920.50;857.42;;;;;;;12.16;72.81;100566.06;700042;28;1424;-65
2022/11/05 00:37:48;;;;;;;908.08;845.53;;;;;;;12.18;73.18;100570.28;697356;28;44375;-65
2022/11/05 00:38:10;;;;;;;907.05;844.67;;;;;;;12.16;72.87;100569.66;696907;28;44388;-65
2022/11/05 00:38:32;;;;;;;932.75;869.55;;;;;;;12.16;73.25;100575.06;697115;28;46338;-64
2022/11/05 00:38:53;;;;;;;920.00;857.15;;;;;;;12.16;72.79;100575.06;697589;28;45377;-65
2022/11/05 00:39:15;;;;;;;918.97;856.20;;;;;;;12.17;72.97;100568.59;698344;28;22294;-65
2022/11/05 00:39:37;;;;;;;923.08;860.05;;;;;;;12.18;72.91;100574.88;696728;28;69417;-64
2022/11/05 00:39:58;;;;;;;924.40;861.40;;;;;;;12.15;73.18;100570.66;698988;28;22439;-65
2022/11/05 00:40:20;;;;;;;909.63;847.13;;;;;;;12.18;72.79;100583.00;701118;28;22433;-65
2022/11/05 00:40:41;;;;;;;920.60;857.85;;;;;;;12.18;73.10;100581.09;700172;28;44368;-65
2022/11/05 00:41:02;;;;;;;924.00;861.20;;;;;;;12.19;72.89;100584.66;700849;28;23647;-65
2022/11/05 00:41:23;;;;;;;923.55;860.60;;;;;;;12.18;73.31;100577.56;701081;28;23458;-65
2022/11/05 00:44:58;;;;;;;925.10;862.13;;;;;;;12.18;72.87;100581.09;700886;28;24781;-65
2022/11/05 00:45:08;;;;;;;925.47;862.47;;;;;;;12.19;73.05;100576.53;694233;28;137007;-64
2022/11/05 00:45:30;;;;;;;913.38;850.70;;;;;;;12.16;73.03;100568.78;695876;28;92237;-65
2022/11/05 00:45:51;;;;;;;892.45;830.42;;;;;;;12.18;73.16;100575.69;697530;28;44401;-65
2022/11/05 00:46:13;;;;;;;918.22;855.53;;;;;;;12.18;72.84;100572.16;698420;28;22441;-65
2022/11/05 00:46:34;;;;;;;919.88;857.00;;;;;;;12.18;72.85;100580.28;697486;28;45285;-65
2022/11/05 00:49:31;;;;;;;922.28;859.53;;;;;;;12.18;73.01;100581.09;696006;28;136215;-64
2022/11/05 00:49:52;;;;;;;913.95;851.42;;;;;;;12.18;72.86;100581.09;701170;28;21544;-64
2022/11/05 00:50:13;;;;;;;928.63;865.60;;;;;;;12.18;72.95;100589.22;700044;28;44208;-65
2022/11/05 00:50:35;;;;;;;895.42;833.45;;;;;;;12.18;73.04;100585.69;701202;28;21539;-64
2022/11/05 00:50:56;;;;;;;920.53;857.70;;;;;;;12.16;73.23;100585.03;700453;28;44330;-65
2022/11/05 00:51:18;;;;;;;925.30;862.38;;;;;;;12.17;73.06;100582.13;701051;28;21542;-65
2022/11/05 00:51:39;;;;;;;924.78;861.88;;;;;;;12.17;72.74;100590.25;701064;28;23497;-65
2022/11/05 00:52:55;;;;;;;925.08;862.17;;;;;;;12.16;73.05;100583.19;691785;28;137231;-65
2022/11/05 00:53:16;;;;;;;930.45;867.20;;;;;;;12.18;73.21;100588.41;694104;28;137695;-65
2022/11/05 00:53:38;;;;;;;905.25;842.97;;;;;;;12.18;73.17;100588.41;699070;28;22407;-65
2022/11/05 00:53:59;;;;;;;925.95;863.05;;;;;;;12.18;73.04;100585.69;699654;28;45267;-65
2022/11/05 00:54:20;;;;;;;926.42;863.45;;;;;;;12.16;72.84;100588.59;701199;28;22282;-65
2022/11/05 00:54:41;;;;;;;913.80;851.13;;;;;;;12.15;72.92;100581.50;699658;28;22398;-64
2022/11/05 00:55:03;;;;;;;920.60;857.67;;;;;;;12.16;73.13;100580.47;699314;28;47171;-64
2022/11/05 00:55:37;;;;;;;925.03;862.00;;;;;;;12.16;72.86;100588.59;700919;28;23288;-64
2022/11/05 00:55:59;;;;;;;921.95;859.05;;;;;;;12.16;72.70;100587.75;696799;28;137633;-64
2022/11/05 00:56:20;;;;;;;910.83;848.35;;;;;;;12.16;72.81;100588.59;696226;28;45231;-64
2022/11/05 00:56:41;;;;;;;913.63;850.97;;;;;;;12.16;72.87;100588.59;697897;28;22182;-64
2022/11/05 00:57:03;;;;;;;898.97;836.47;;;;;;;12.16;72.80;100590.44;699726;28;22476;-63
2022/11/05 00:57:24;;;;;;;917.25;854.30;;;;;;;12.16;72.77;100585.03;699095;28;67465;-64
2022/11/05 00:57:46;;;;;;;929.00;865.88;;;;;;;12.17;73.19;100597.53;700990;28;21533;-64
2022/11/05 00:58:10;;;;;;;923.83;860.90;;;;;;;12.16;73.17;100595.84;700047;28;23408;-64
2022/11/05 00:58:31;;;;;;;927.33;864.22;;;;;;;12.14;73.06;100592.50;697456;28;115011;-63
2022/11/05 00:58:54;;;;;;;913.50;850.95;;;;;;;12.15;72.92;100594.19;701194;28;22394;-63
2022/11/05 00:59:15;;;;;;;889.88;828.15;;;;;;;12.16;72.86;100593.16;700262;28;46295;-64
2022/11/05 00:59:37;;;;;;;899.22;837.17;;;;;;;12.14;73.22;100593.34;700233;28;46306;-64
2022/11/05 00:59:58;;;;;;;928.40;865.38;;;;;;;12.16;72.87;100590.44;700270;28;45222;-64
2022/11/05 01:00:22;;;;;;;911.47;849.03;;;;;;;12.14;73.41;100592.50;701128;28;22248;-63
2022/11/05 01:00:49;;;;;;;924.15;861.00;;;;;;;12.15;72.96;100588.78;695059;28;87146;-64
2022/11/05 01:01:10;;;;;;;921.83;858.85;;;;;;;12.15;73.13;100597.75;694005;28;136395;-64
2022/11/05 01:01:31;;;;;;;923.30;860.33;;;;;;;12.14;72.93;100590.63;697208;28;46558;-64
2022/11/05 01:01:52;;;;;;;922.17;859.22;;;;;;;12.15;73.26;100597.75;698130;28;22395;-64
2022/11/05 01:02:13;;;;;;;920.13;857.38;;;;;;;12.16;73.24;100598.56;698135;28;22336;-63
2022/11/05 01:02:34;;;;;;;924.65;861.70;;;;;;;12.16;73.27;100599.44;699263;28;21499;-64
2022/11/05 01:02:58;;;;;;;919.47;856.67;;;;;;;12.18;72.88;100601.94;701200;28;21537;-64
2022/11/05 01:03:21;;;;;;;923.90;860.92;;;;;;;12.15;72.88;100602.31;698713;28;92073;-64
2022/11/05 01:03:43;;;;;;;914.58;851.85;;;;;;;12.16;72.80;100603.97;699670;28;46159;-63
2022/11/05 01:04:04;;;;;;;914.83;852.05;;;;;;;12.16;72.88;100603.97;695859;28;70597;-63
2022/11/05 01:04:25;;;;;;;921.47;858.65;;;;;;;12.15;73.26;100603.16;696729;28;819;-64
2022/11/05 01:04:46;;;;;;;906.08;843.67;;;;;;;12.15;72.93;100605.84;695352;28;22391;-62
2022/11/05 01:05:08;;;;;;;899.63;837.58;;;;;;;12.15;73.12;100610.44;695485;28;22281;-64
2022/11/05 01:05:31;;;;;;;924.30;861.42;;;;;;;12.15;73.12;100605.84;694726;28;46478;-64
2022/11/05 01:05:54;;;;;;;926.17;863.08;;;;;;;12.15;73.21;100599.63;697204;28;69084;-64
2022/11/05 01:06:16;;;;;;;909.22;846.80;;;;;;;12.15;73.31;100603.16;699523;28;69560;-64
2022/11/05 01:06:38;;;;;;;912.10;849.50;;;;;;;12.15;73.00;100608.56;700216;28;44385;-64
2022/11/05 01:06:59;;;;;;;914.65;851.65;;;;;;;12.15;72.93;100602.31;698356;28;46410;-64
2022/11/05 01:07:20;;;;;;;929.40;866.03;;;;;;;12.16;72.91;100606.69;698125;28;22427;-64
2022/11/05 01:07:41;;;;;;;926.72;863.67;;;;;;;12.14;73.05;100609.59;698345;28;23391;-64
2022/11/05 01:08:03;;;;;;;938.13;874.58;;;;;;;12.15;73.35;100605.03;697222;28;24317;-64
2022/11/05 01:08:26;;;;;;;918.13;855.28;;;;;;;12.15;72.89;100607.75;697571;28;44311;-63
2022/11/05 01:08:48;;;;;;;931.05;867.83;;;;;;;12.15;72.82;100603.16;695199;28;91910;-64
2022/11/05 01:09:09;;;;;;;923.25;860.45;;;;;;;12.15;72.88;100608.56;695700;28;21465;-63
2022/11/05 01:09:30;;;;;;;919.50;856.90;;;;;;;12.15;72.88;100600.44;698308;28;22418;-63
2022/11/05 01:09:52;;;;;;;928.97;865.88;;;;;;;12.15;73.03;100611.28;697868;28;23459;-64
2022/11/05 01:10:13;;;;;;;939.65;876.05;;;;;;;12.16;73.31;100607.56;697422;28;46300;-64
2022/11/05 01:10:46;;;;;;;925.40;862.40;;;;;;;12.17;72.89;100611.91;698354;28;21289;-64
2022/11/05 01:11:09;;;;;;;914.50;851.90;;;;;;;12.16;73.27;100603.97;694253;28;138675;-64
2022/11/05 01:11:34;;;;;;;927.88;864.88;;;;;;;12.12;73.18;100602.69;696092;28;92272;-64
2022/11/05 01:11:55;;;;;;;910.05;847.45;;;;;;;12.16;72.86;100615.66;697695;28;90719;-64
2022/11/05 01:12:17;;;;;;;921.17;858.17;;;;;;;12.15;72.85;100615.88;698116;28;4080;-64
2022/11/05 01:12:38;;;;;;;911.33;848.72;;;;;;;12.13;72.99;100607.94;697250;28;46274;-65
2022/11/05 01:13:00;;;;;;;905.65;843.22;;;;;;;12.14;73.38;100612.28;697154;28;44697;-65
2022/11/05 01:13:23;;;;;;;923.22;860.30;;;;;;;12.15;72.88;100613.16;695826;28;23455;-65
2022/11/05 01:13:45;;;;;;;919.55;856.78;;;;;;;12.15;73.28;100607.75;696060;28;69275;-64
2022/11/05 01:14:08;;;;;;;918.78;855.92;;;;;;;12.15;73.05;100613.97;698118;28;44383;-65
2022/11/05 01:14:30;;;;;;;910.08;847.50;;;;;;;12.15;73.21;100611.28;697899;28;92404;-65
2022/11/05 01:14:51;;;;;;;916.75;853.95;;;;;;;12.16;72.87;100614.81;698661;28;22391;-64
2022/11/05 01:15:12;;;;;;;896.22;834.13;;;;;;;12.15;73.23;100611.28;698749;28;23489;-65
2022/11/05 01:15:37;;;;;;;919.78;856.97;;;;;;;12.15;72.81;100610.44;697444;28;44059;-64
2022/11/05 01:16:04;;;;;;;913.88;851.17;;;;;;;12.15;72.78;100613.97;695935;28;90642;-65
2022/11/05 01:16:25;;;;;;;920.40;857.53;;;;;;;12.15;73.20;100613.97;690974;28;136230;-64
2022/11/05 01:16:46;;;;;;;918.10;855.28;;;;;;;12.15;73.15;100615.88;695371;28;21567;-64
2022/11/05 01:17:08;;;;;;;924.47;861.35;;;;;;;12.15;73.26;100611.28;692082;28;23254;-64
2022/11/05 01:17:30;;;;;;;930.38;867.25;;;;;;;12.15;73.20;100618.56;692414;28;22241;-64
2022/11/05 01:17:51;;;;;;;897.28;835.13;;;;;;;12.15;72.91;100611.28;691161;28;45229;-65
2022/11/05 01:18:13;;;;;;;900.95;838.67;;;;;;;12.14;73.30;100611.47;692413;28;23787;-65
2022/11/05 01:18:37;;;;;;;925.85;862.67;;;;;;;12.14;73.14;100617.72;693745;28;44389;-65
2022/11/05 01:18:58;;;;;;;932.03;868.83;;;;;;;12.14;73.13;100611.47;693855;28;92528;-65
2022/11/05 01:19:19;;;;;;;929.97;866.95;;;;;;;12.14;73.32;100616.88;698308;28;23451;-65
2022/11/05 01:19:40;;;;;;;909.15;846.83;;;;;;;12.13;73.36;100618.75;698336;28;21550;-64
2022/11/05 01:20:02;;;;;;;911.95;849.40;;;;;;;12.11;72.96;100606.44;698008;28;22400;-65
2022/11/05 01:20:24;;;;;;;916.40;853.63;;;;;;;12.14;73.24;100617.72;696928;28;45399;-65
2022/11/05 01:20:46;;;;;;;904.65;842.15;;;;;;;12.13;72.92;100610.63;695123;28;46423;-65
2022/11/05 01:21:12;;;;;;;939.88;876.28;;;;;;;12.13;72.93;100613.34;693530;28;46323;-64
2022/11/05 01:21:33;;;;;;;945.85;882.05;;;;;;;12.14;72.93;100608.75;691838;28;139412;-64
2022/11/05 01:21:55;;;;;;;922.47;859.42;;;;;;;12.14;73.16;100609.59;697406;28;46246;-64
2022/11/05 01:22:16;;;;;;;919.20;856.33;;;;;;;12.14;73.21;100615.00;697449;28;46266;-64
2022/11/05 01:22:38;;;;;;;914.63;851.97;;;;;;;12.15;72.98;100613.16;698346;28;23473;-64
2022/11/05 01:23:00;;;;;;;908.65;846.20;;;;;;;12.16;73.00;100617.53;698809;28;45265;-64
2022/11/05 01:23:21;;;;;;;916.35;853.60;;;;;;;12.15;73.25;100610.44;699329;28;45328;-64
2022/11/05 01:23:42;;;;;;;922.85;859.92;;;;;;;12.15;72.93;100613.97;697830;28;22394;-64
2022/11/05 01:24:04;;;;;;;908.78;846.30;;;;;;;12.13;73.52;100609.78;700605;28;23381;-64
2022/11/05 01:24:25;;;;;;;892.00;830.08;;;;;;;12.15;72.96;100608.56;699487;28;44384;-63
2022/11/05 01:24:47;;;;;;;902.40;840.10;;;;;;;12.14;73.18;100609.59;698251;28;22175;-63
2022/11/05 01:25:09;;;;;;;920.35;857.53;;;;;;;12.12;73.19;100606.25;700220;28;44360;-64
2022/11/05 01:25:30;;;;;;;927.90;864.80;;;;;;;12.15;72.94;100616.69;700976;28;25418;-64
2022/11/05 01:25:52;;;;;;;934.05;870.58;;;;;;;12.15;72.88;100618.56;700024;28;21537;-64
2022/11/05 01:26:13;;;;;;;926.15;863.10;;;;;;;12.14;72.97;100615.00;698601;28;44401;-63
2022/11/05 01:26:35;;;;;;;909.40;846.88;;;;;;;12.14;73.03;100615.00;700907;28;22554;-64
2022/11/05 01:26:56;;;;;;;928.92;865.47;;;;;;;12.14;72.83;100612.28;699589;28;46279;-62
2022/11/05 01:27:17;;;;;;;927.33;863.80;;;;;;;12.15;72.82;100615.88;700611;28;1842;-64
2022/11/05 01:27:39;;;;;;;918.25;855.35;;;;;;;12.14;72.75;100617.72;699340;28;47161;-63
2022/11/05 01:28:01;;;;;;;923.45;860.47;;;;;;;12.14;73.17;100615.00;697000;28;47448;-64
2022/11/05 01:28:27;;;;;;;903.28;840.95;;;;;;;12.15;73.16;100618.56;694190;28;61304;-64
2022/11/05 01:28:51;;;;;;;918.78;856.03;;;;;;;12.14;73.28;100617.72;695309;28;22402;-63
2022/11/05 01:29:13;;;;;;;906.97;844.72;;;;;;;12.15;73.34;100613.97;695895;28;92233;-64
2022/11/05 01:29:34;;;;;;;898.95;836.95;;;;;;;12.13;72.92;100616.06;697451;28;46341;-64
2022/11/05 01:29:56;;;;;;;918.42;855.78;;;;;;;12.14;73.34;100619.59;697447;28;44475;-65
2022/11/05 01:30:18;;;;;;;902.55;840.15;;;;;;;12.14;73.00;100617.72;697910;28;23470;-65
2022/11/05 01:30:40;;;;;;;922.47;859.58;;;;;;;12.13;73.44;100615.19;697112;28;45272;-65
2022/11/05 01:31:02;;;;;;;921.70;858.83;;;;;;;12.10;73.19;100612.88;696565;28;69437;-65
2022/11/05 01:31:23;;;;;;;918.75;856.00;;;;;;;12.15;72.98;100622.09;700834;28;20878;-65
2022/11/05 01:31:44;;;;;;;912.65;849.92;;;;;;;12.15;73.17;100618.56;700973;28;22400;-65
2022/11/05 01:32:06;;;;;;;889.97;828.03;;;;;;;12.14;72.89;100625.81;700250;28;45215;-65
2022/11/05 01:32:27;;;;;;;924.90;861.95;;;;;;;12.15;72.99;100621.28;700407;28;44280;-65
2022/11/05 01:32:48;;;;;;;930.63;867.42;;;;;;;12.15;72.87;100621.28;700858;28;22425;-65
2022/11/05 01:33:10;;;;;;;915.25;852.58;;;;;;;12.14;73.17;100625.81;700927;28;22364;-65
2022/11/05 01:33:32;;;;;;;919.55;856.75;;;;;;;12.14;73.11;100625.81;700637;28;22429;-65
2022/11/05 01:33:53;;;;;;;925.00;861.97;;;;;;;12.14;73.22;100620.41;700244;28;46384;-65
2022/11/05 01:34:14;;;;;;;917.47;854.78;;;;;;;12.15;72.85;100627.53;700146;28;46330;-64
2022/11/05 01:34:35;;;;;;;921.90;859.00;;;;;;;12.15;72.95;100621.28;701175;28;18511;-65
2022/11/05 01:34:56;;;;;;;926.75;863.67;;;;;;;12.16;72.91;100621.09;700957;28;22437;-65
2022/11/05 01:35:19;;;;;;;902.30;840.05;;;;;;;12.13;73.07;100617.91;700944;28;22436;-65
2022/11/05 01:35:40;;;;;;;894.53;832.42;;;;;;;12.15;72.77;100623.97;698890;28;69362;-65
2022/11/05 01:36:04;;;;;;;915.45;852.72;;;;;;;12.13;73.05;100623.31;700221;28;22205;-64
2022/11/05 01:36:25;;;;;;;928.47;865.38;;;;;;;12.13;73.03;100621.47;693196;28;92151;-65
2022/11/05 01:36:47;;;;;;;916.90;854.08;;;;;;;12.13;73.11;100617.91;697961;28;22378;-65
2022/11/05 01:37:08;;;;;;;918.65;855.50;;;;;;;12.13;72.92;100616.06;695597;28;46230;-65
2022/11/05 01:37:29;;;;;;;907.35;844.88;;;;;;;12.13;73.26;100618.75;697023;28;23249;-65
2022/11/05 01:37:52;;;;;;;923.17;860.27;;;;;;;12.14;72.88;100625.00;697476;28;23518;-65
2022/11/05 01:38:13;;;;;;;936.58;873.17;;;;;;;12.13;73.04;100621.47;696620;28;69436;-64
2022/11/05 01:38:34;;;;;;;916.72;854.10;;;;;;;12.14;72.93;100620.41;700534;28;22377;-65
2022/11/05 01:38:55;;;;;;;901.85;839.75;;;;;;;12.13;73.10;100615.19;699209;28;22379;-65
2022/11/05 01:39:17;;;;;;;931.35;868.30;;;;;;;12.14;73.15;100617.72;696908;28;22364;-65
2022/11/05 01:39:38;;;;;;;920.95;858.17;;;;;;;12.14;73.07;100609.59;696905;28;45270;-65
2022/11/05 01:39:59;;;;;;;905.35;842.90;;;;;;;12.15;72.71;100619.41;697575;28;23477;-65
2022/11/05 01:40:22;;;;;;;923.88;860.90;;;;;;;12.14;72.96;100617.72;695842;28;46332;-65
2022/11/05 01:40:45;;;;;;;921.42;858.63;;;;;;;12.15;72.77;100619.41;694586;28;47169;-65
2022/11/05 01:41:06;;;;;;;902.80;840.58;;;;;;;12.16;73.11;100622.94;695138;28;69436;-65
2022/11/05 01:41:27;;;;;;;904.35;842.15;;;;;;;12.15;72.72;100613.16;698352;28;23466;-65
2022/11/05 01:41:48;;;;;;;917.65;854.95;;;;;;;12.16;72.91;100614.81;697413;28;44383;-65
2022/11/05 01:42:15;;;;;;;914.50;851.90;;;;;;;12.16;72.87;100620.22;696818;28;21528;-65
2022/11/05 01:42:36;;;;;;;904.72;842.38;;;;;;;12.16;72.54;100625.63;691553;28;138059;-65
2022/11/05 01:42:57;;;;;;;912.75;850.25;;;;;;;12.16;73.02;100623.78;695549;28;21299;-65
2022/11/05 01:43:22;;;;;;;919.75;856.97;;;;;;;12.14;72.52;100615.00;695604;28;21551;-65
2022/11/05 01:43:46;;;;;;;907.13;844.78;;;;;;;12.15;72.59;100622.09;691742;28;113352;-65
2022/11/05 01:44:40;;;;;;;905.53;843.28;;;;;;;12.14;72.61;100617.72;693196;28;92296;-65
2022/11/05 01:45:07;;;;;;;913.40;850.80;;;;;;;12.14;72.67;100617.72;690635;28;160524;-65
2022/11/05 01:45:28;;;;;;;900.63;838.45;;;;;;;12.13;72.75;100616.06;690867;28;159279;-65
2022/11/05 01:45:53;;;;;;;908.13;845.72;;;;;;;12.13;72.76;100624.16;695322;28;46314;-65
2022/11/05 01:46:15;;;;;;;910.00;847.60;;;;;;;12.13;72.60;100618.75;695920;28;93080;-65
2022/11/05 01:46:39;;;;;;;900.83;838.63;;;;;;;12.14;72.80;100619.59;697489;28;44362;-64
2022/11/05 01:47:00;;;;;;;918.88;855.90;;;;;;;12.13;73.06;100626.03;694422;28;115140;-65
2022/11/05 01:47:28;;;;;;;919.42;856.53;;;;;;;12.12;72.78;100621.66;698089;28;22386;-65
2022/11/05 01:47:56;;;;;;;899.78;837.67;;;;;;;12.12;72.73;100622.47;694140;28;137745;-65
2022/11/05 01:48:20;;;;;;;916.53;853.97;;;;;;;12.12;72.77;100630.59;694123;28;136289;-65
2022/11/05 01:48:41;;;;;;;916.15;853.55;;;;;;;12.11;72.82;100628.09;695150;28;90081;-64
2022/11/05 01:49:06;;;;;;;924.35;861.53;;;;;;;12.12;73.08;100624.34;698328;28;21406;-65
2022/11/05 01:49:29;;;;;;;909.83;847.38;;;;;;;12.11;72.47;100628.09;694914;28;115509;-65
2022/11/05 01:49:51;;;;;;;890.70;828.75;;;;;;;12.12;72.96;100622.47;696601;28;67450;-65
2022/11/05 01:50:34;;;;;;;913.80;851.22;;;;;;;12.13;72.75;100626.03;696386;28;22553;-65
2022/11/05 01:50:58;;;;;;;902.92;840.67;;;;;;;12.11;72.62;100634.34;688107;28;137540;-65
2022/11/05 01:51:22;;;;;;;920.90;858.13;;;;;;;12.12;72.89;100635.19;693163;28;90470;-65
2022/11/05 01:51:43;;;;;;;909.92;847.47;;;;;;;12.13;72.70;100623.31;693034;28;90404;-65
2022/11/05 01:52:04;;;;;;;918.17;855.45;;;;;;;12.12;73.09;100627.06;695481;28;23550;-65
2022/11/05 01:52:28;;;;;;;913.95;851.42;;;;;;;12.12;72.75;100632.47;696313;28;910;-65
2022/11/05 01:52:52;;;;;;;913.45;850.88;;;;;;;12.11;72.65;100622.66;693485;28;69213;-65
2022/11/05 01:53:21;;;;;;;923.38;860.47;;;;;;;12.11;73.16;100630.78;695676;28;14878;-64
2022/11/05 01:53:45;;;;;;;896.00;833.80;;;;;;;12.11;72.84;100626.22;690519;28;137472;-65
2022/11/05 01:54:10;;;;;;;926.15;863.10;;;;;;;12.11;73.09;100633.50;693090;28;90335;-65
2022/11/05 01:54:32;;;;;;;921.47;858.65;;;;;;;12.11;72.98;100631.63;691379;28;138125;-65
2022/11/05 01:54:53;;;;;;;907.35;844.85;;;;;;;12.11;72.86;100631.63;695469;28;22397;-65
2022/11/05 01:55:18;;;;;;;907.88;845.50;;;;;;;12.11;72.88;100628.91;694725;28;46317;-65
2022/11/05 01:55:44;;;;;;;897.75;835.65;;;;;;;12.11;72.96;100634.34;692168;28;114329;-65
2022/11/05 01:56:08;;;;;;;926.55;863.55;;;;;;;12.12;72.85;100637.91;693330;28;115278;-65
2022/11/05 01:56:32;;;;;;;912.40;849.95;;;;;;;12.12;73.08;100637.91;695970;28;90633;-65
2022/11/05 01:56:55;;;;;;;901.00;838.78;;;;;;;12.12;72.92;100638.72;695276;28;90693;-65
2022/11/05 01:57:17;;;;;;;912.85;850.08;;;;;;;12.12;73.09;100635.19;695450;28;91896;-65
2022/11/05 01:57:39;;;;;;;910.50;847.97;;;;;;;12.12;73.15;100635.19;697367;28;46187;-65
2022/11/05 01:58:02;;;;;;;905.03;842.78;;;;;;;12.11;72.80;100637.03;698149;28;23458;-64
2022/11/05 01:58:27;;;;;;;892.03;830.20;;;;;;;12.12;73.17;100638.72;696625;28;69421;-65
2022/11/05 01:58:52;;;;;;;932.08;868.83;;;;;;;12.11;72.96;100634.34;693748;28;137926;-65
2022/11/05 01:59:16;;;;;;;904.15;841.97;;;;;;;12.11;72.80;100634.34;695102;28;113561;-65
2022/11/05 01:59:41;;;;;;;916.95;854.30;;;;;;;12.10;72.80;100631.81;695840;28;92136;-65
2022/11/05 02:00:05;;;;;;;895.63;833.30;;;;;;;12.11;72.69;100637.03;696885;28;39786;-65
2022/11/05 02:00:34;;;;;;;919.10;856.38;;;;;;;12.11;72.90;100637.03;691542;28;136086;-64
2022/11/05 02:00:56;;;;;;;916.72;854.00;;;;;;;12.09;72.80;100633.69;694626;28;46307;-65
2022/11/05 02:01:18;;;;;;;925.17;862.22;;;;;;;12.11;72.77;100638.91;694773;28;44365;-65
2022/11/05 02:01:40;;;;;;;916.53;853.85;;;;;;;12.10;72.74;100635.38;694639;28;46345;-65
2022/11/05 02:02:02;;;;;;;915.08;852.35;;;;;;;12.10;72.80;100635.38;694489;28;45224;-65
2022/11/05 02:02:24;;;;;;;926.88;863.78;;;;;;;12.10;72.59;100634.53;691845;28;46341;-65
2022/11/05 02:02:45;;;;;;;902.88;840.53;;;;;;;12.10;72.65;100640.78;692519;28;23421;-65
2022/11/05 02:03:07;;;;;;;899.25;837.13;;;;;;;12.09;73.05;100641.81;691906;28;44335;-65
2022/11/05 02:03:29;;;;;;;917.85;855.15;;;;;;;12.10;73.04;100637.22;692619;28;22503;-65
2022/11/05 02:03:54;;;;;;;914.47;851.78;;;;;;;12.10;73.15;100639.94;689943;28;88862;-65
2022/11/05 02:04:20;;;;;;;917.55;854.78;;;;;;;12.10;72.66;100639.94;690430;28;115377;-65
2022/11/05 02:04:43;;;;;;;913.28;850.70;;;;;;;12.08;72.65;100638.28;691443;28;138012;-65
2022/11/05 02:05:06;;;;;;;897.08;835.00;;;;;;;12.07;72.70;100638.47;693428;28;92207;-65
2022/11/05 02:05:28;;;;;;;908.95;846.45;;;;;;;12.06;72.94;100634.91;696487;28;70683;-65
2022/11/05 02:05:51;;;;;;;913.38;850.78;;;;;;;12.07;73.01;100643.88;697396;28;46370;-65
2022/11/05 02:06:15;;;;;;;926.88;863.85;;;;;;;12.06;72.65;100639.47;696494;28;67498;-65
2022/11/05 02:06:44;;;;;;;909.30;846.78;;;;;;;12.03;72.81;100642.56;695819;28;92224;-65